createdAt,value
2022-09-10T00:00:11.394Z,16.58
2022-09-10T00:03:13.911Z,16.63
2022-09-10T00:06:18.832Z,16.62
2022-09-10T00:09:21.417Z,16.58
2022-09-10T00:12:24.314Z,16.59
2022-09-10T00:15:27.078Z,16.55
2022-09-10T00:18:30.518Z,16.50
2022-09-10T00:21:33.645Z,16.54
2022-09-10T00:24:36.593Z,16.47
2022-09-10T00:27:40.491Z,16.48
2022-09-10T00:30:48.911Z,16.44
2022-09-10T00:33:52.711Z,16.39
2022-09-10T00:36:55.615Z,16.29
2022-09-10T00:39:59.354Z,16.28
2022-09-10T00:43:02.399Z,16.23
2022-09-10T00:46:05.293Z,16.16
2022-09-10T00:49:30.856Z,16.12
2022-09-10T00:52:39.390Z,16.05
2022-09-10T00:55:50.397Z,15.98
2022-09-10T00:58:53.349Z,15.99
2022-09-10T01:01:56.380Z,15.95
2022-09-10T01:05:00.656Z,15.91
2022-09-10T01:08:04.046Z,15.86
2022-09-10T01:11:26.562Z,15.81
2022-09-10T01:14:48.209Z,15.77
2022-09-10T01:18:30.231Z,15.74
2022-09-10T01:21:56.062Z,15.72
2022-09-10T01:25:16.091Z,15.70
2022-09-10T01:28:33.785Z,15.68
2022-09-10T01:31:53.259Z,15.65
2022-09-10T01:35:23.262Z,15.61
2022-09-10T01:38:35.507Z,15.59
2022-09-10T01:41:39.547Z,15.50
2022-09-10T01:44:43.675Z,15.54
2022-09-10T01:47:59.247Z,15.51
2022-09-10T01:51:35.605Z,15.44
2022-09-10T01:55:03.220Z,15.44
2022-09-10T01:58:33.600Z,15.38
2022-09-10T02:01:46.168Z,15.34
2022-09-10T02:04:50.513Z,15.25
2022-09-10T02:07:58.589Z,15.24
2022-09-10T02:11:06.483Z,15.21
2022-09-10T02:14:09.714Z,15.18
2022-09-10T02:17:16.228Z,15.10
2022-09-10T02:20:20.512Z,15.12
2022-09-10T02:23:31.475Z,15.07
2022-09-10T02:26:35.102Z,15.11
2022-09-10T02:29:39.189Z,15.08
2022-09-10T02:32:42.910Z,15.07
2022-09-10T02:35:49.808Z,15.05
2022-09-10T02:38:53.681Z,15.04
2022-09-10T02:41:58.669Z,15.03
2022-09-10T02:45:01.514Z,14.99
2022-09-10T02:48:04.460Z,14.98
2022-09-10T02:51:07.443Z,14.91
2022-09-10T02:54:12.165Z,14.97
2022-09-10T02:57:14.808Z,14.95
2022-09-10T03:00:20.279Z,14.87
2022-09-10T03:03:23.402Z,14.91
2022-09-10T03:06:27.776Z,14.89
2022-09-10T03:09:30.368Z,14.81
2022-09-10T03:12:33.254Z,14.86
2022-09-10T03:15:35.817Z,14.89
2022-09-10T03:18:42.998Z,14.96
2022-09-10T03:21:47.543Z,14.98
2022-09-10T03:24:50.573Z,15.00
2022-09-10T03:27:53.106Z,15.03
2022-09-10T03:30:56.608Z,14.94
2022-09-10T03:34:00.032Z,14.98
2022-09-10T03:37:03.759Z,14.96
2022-09-10T03:40:07.929Z,14.98
2022-09-10T03:43:13.087Z,14.98
2022-09-10T03:46:16.118Z,15.02
2022-09-10T03:49:19.691Z,15.03
2022-09-10T03:52:22.889Z,15.10
2022-09-10T03:55:26.197Z,15.12
2022-09-10T03:58:29.095Z,15.14
2022-09-10T04:01:32.122Z,15.14
2022-09-10T04:04:37.383Z,15.15
2022-09-10T04:07:39.973Z,15.10
2022-09-10T04:10:44.400Z,15.17
2022-09-10T04:13:48.535Z,15.20
2022-09-10T04:16:51.730Z,15.18
2022-09-10T04:19:54.866Z,15.26
2022-09-10T04:22:57.756Z,15.18
2022-09-10T04:26:01.623Z,15.19
2022-09-10T04:29:04.853Z,15.27
2022-09-10T04:32:07.557Z,15.25
2022-09-10T04:35:11.365Z,15.30
2022-09-10T04:38:14.070Z,15.34
2022-09-10T04:41:19.541Z,15.38
2022-09-10T04:44:22.608Z,15.36
2022-09-10T04:47:25.829Z,15.38
2022-09-10T04:50:28.478Z,15.38
2022-09-10T04:53:41.960Z,15.40
2022-09-10T04:56:47.495Z,15.38
2022-09-10T04:59:50.416Z,15.41
2022-09-10T05:02:54.061Z,15.40
2022-09-10T05:05:57.174Z,15.44
2022-09-10T05:08:59.890Z,15.51
2022-09-10T05:12:03.905Z,15.51
2022-09-10T05:15:07.319Z,15.55
2022-09-10T05:18:11.002Z,15.62
2022-09-10T05:21:14.575Z,15.72
2022-09-10T05:24:19.354Z,15.72
2022-09-10T05:27:22.818Z,15.75
2022-09-10T05:30:26.123Z,15.77
2022-09-10T05:33:29.360Z,15.80
2022-09-10T05:36:32.297Z,15.76
2022-09-10T05:39:35.199Z,15.86
2022-09-10T05:42:38.210Z,15.88
2022-09-10T05:45:41.423Z,15.83
2022-09-10T05:48:44.501Z,15.89
2022-09-10T05:51:47.557Z,15.90
2022-09-10T05:54:51.620Z,15.94
2022-09-10T05:57:54.276Z,15.95
2022-09-10T06:00:58.257Z,16.01
2022-09-10T06:04:01.455Z,16.04
2022-09-10T06:07:04.756Z,16.04
2022-09-10T06:10:08.081Z,16.05
2022-09-10T06:13:11.957Z,16.06
2022-09-10T06:16:15.954Z,16.08
2022-09-10T06:19:19.890Z,16.16
2022-09-10T06:22:22.907Z,16.23
2022-09-10T06:25:25.934Z,16.30
2022-09-10T06:28:29.153Z,16.30
2022-09-10T06:31:31.851Z,16.35
2022-09-10T06:34:35.876Z,16.37
2022-09-10T06:37:39.236Z,16.39
2022-09-10T06:40:54.177Z,16.40
2022-09-10T06:43:57.715Z,16.44
2022-09-10T06:47:45.933Z,16.44
2022-09-10T06:50:26.635Z,16.48
2022-09-10T06:53:33.392Z,16.56
2022-09-10T06:56:36.280Z,16.70
2022-09-10T06:59:39.420Z,16.86
2022-09-10T07:02:42.159Z,17.17
2022-09-10T07:05:47.068Z,17.42
2022-09-10T07:08:55.341Z,17.84
2022-09-10T07:11:59.180Z,18.06
2022-09-10T07:15:03.024Z,18.20
2022-09-10T07:18:06.660Z,18.02
2022-09-10T07:21:13.482Z,18.15
2022-09-10T07:24:22.212Z,18.22
2022-09-10T07:27:27.253Z,18.27
2022-09-10T07:30:31.317Z,18.43
2022-09-10T07:33:34.408Z,18.68
2022-09-10T07:36:37.517Z,18.78
2022-09-10T07:39:40.443Z,18.69
2022-09-10T07:42:44.557Z,18.57
2022-09-10T07:45:47.299Z,18.46
2022-09-10T07:48:58.510Z,18.35
2022-09-10T07:52:01.634Z,18.21
2022-09-10T07:55:05.716Z,18.19
2022-09-10T07:58:09.916Z,18.43
2022-09-10T08:01:14.166Z,18.62
2022-09-10T08:04:18.079Z,19.30
2022-09-10T08:07:20.735Z,20.15
2022-09-10T08:10:23.717Z,20.56
2022-09-10T08:13:29.985Z,21.54
2022-09-10T08:16:33.509Z,22.46
2022-09-10T08:19:37.014Z,23.49
2022-09-10T08:22:39.985Z,22.95
2022-09-10T08:25:51.556Z,22.12
2022-09-10T08:28:57.952Z,21.52
2022-09-10T08:32:01.273Z,21.17
2022-09-10T08:35:05.913Z,21.18
2022-09-10T08:38:10.549Z,21.24
2022-09-10T08:41:19.497Z,20.76
2022-09-10T08:44:28.466Z,20.80
2022-09-10T08:47:50.099Z,20.78
2022-09-10T08:51:10.931Z,20.61
2022-09-10T08:54:24.297Z,20.80
2022-09-10T08:57:41.903Z,20.78
2022-09-10T09:00:46.752Z,21.07
2022-09-10T09:03:52.589Z,20.95
2022-09-10T09:07:15.236Z,21.22
2022-09-10T09:10:25.000Z,21.85
2022-09-10T09:13:33.923Z,22.16
2022-09-10T09:16:55.116Z,22.17
2022-09-10T09:20:20.376Z,22.25
2022-09-10T09:23:36.183Z,22.13
2022-09-10T09:26:45.092Z,22.15
2022-09-10T09:29:56.037Z,22.22
2022-09-10T09:33:10.540Z,22.91
2022-09-10T09:36:18.397Z,22.96
2022-09-10T09:39:38.977Z,23.48
2022-09-10T09:43:03.320Z,23.10
2022-09-10T09:46:15.913Z,23.47
2022-09-10T09:49:18.914Z,23.37
2022-09-10T09:52:24.385Z,23.44
2022-09-10T09:55:31.068Z,23.31
2022-09-10T09:58:36.675Z,23.22
2022-09-10T10:01:42.809Z,22.84
2022-09-10T10:04:59.981Z,22.97
2022-09-10T10:08:02.848Z,23.04
2022-09-10T10:11:06.527Z,23.08
2022-09-10T10:14:22.022Z,23.21
2022-09-10T10:17:24.789Z,23.21
2022-09-10T10:20:38.961Z,23.40
2022-09-10T10:23:42.415Z,23.74
2022-09-10T10:26:48.779Z,23.08
2022-09-10T10:30:02.315Z,23.06
2022-09-10T10:33:05.294Z,22.66
2022-09-10T10:36:47.120Z,22.98
2022-09-10T10:40:14.623Z,22.93
2022-09-10T10:43:44.947Z,22.66
2022-09-10T10:47:13.574Z,22.53
2022-09-10T10:50:23.854Z,22.41
2022-09-10T10:53:45.355Z,22.71
2022-09-10T10:57:25.822Z,23.02
2022-09-10T11:00:38.132Z,22.99
2022-09-10T11:03:46.407Z,22.99
2022-09-10T11:07:00.983Z,23.23
2022-09-10T11:10:15.583Z,23.29
2022-09-10T11:13:22.098Z,23.70
2022-09-10T11:16:40.314Z,23.37
2022-09-10T11:19:53.305Z,23.57
2022-09-10T11:23:46.969Z,23.63
2022-09-10T11:27:07.339Z,23.18
2022-09-10T11:30:16.241Z,23.02
2022-09-10T11:33:40.036Z,23.13
2022-09-10T11:36:56.069Z,23.16
2022-09-10T11:40:05.824Z,23.17
2022-09-10T11:43:19.541Z,23.17
2022-09-10T11:46:32.810Z,23.49
2022-09-10T11:49:48.273Z,23.69
2022-09-10T11:52:53.428Z,23.38
2022-09-10T11:56:18.242Z,23.11
2022-09-10T12:00:02.836Z,22.69
2022-09-10T12:03:25.627Z,22.59
2022-09-10T12:06:42.867Z,23.03
2022-09-10T12:09:53.651Z,23.43
2022-09-10T12:12:56.698Z,23.70
2022-09-10T12:16:06.184Z,23.32
2022-09-10T12:19:37.366Z,23.27
2022-09-10T12:22:41.917Z,23.37
2022-09-10T12:25:45.500Z,23.11
2022-09-10T12:29:01.063Z,22.71
2022-09-10T12:32:28.627Z,22.60
2022-09-10T12:35:38.174Z,23.01
2022-09-10T12:39:12.747Z,22.75
2022-09-10T12:42:45.764Z,22.61
2022-09-10T12:46:06.718Z,22.44
2022-09-10T12:49:14.074Z,22.46
2022-09-10T12:52:37.010Z,22.97
2022-09-10T12:55:54.607Z,23.36
2022-09-10T12:59:34.612Z,23.35
2022-09-10T13:02:46.375Z,23.72
2022-09-10T13:05:53.386Z,23.75
2022-09-10T13:08:56.234Z,23.40
2022-09-10T13:12:04.173Z,23.19
2022-09-10T13:15:16.952Z,23.32
2022-09-10T13:18:27.124Z,23.64
2022-09-10T13:21:29.670Z,23.72
2022-09-10T13:24:38.446Z,23.42
2022-09-10T13:27:41.733Z,23.05
2022-09-10T13:30:44.742Z,22.67
2022-09-10T13:33:51.338Z,22.65
2022-09-10T13:36:57.144Z,22.52
2022-09-10T13:40:21.540Z,22.58
2022-09-10T13:43:39.814Z,22.80
2022-09-10T13:46:50.790Z,23.10
2022-09-10T13:49:59.480Z,23.28
2022-09-10T13:53:08.285Z,23.22
2022-09-10T13:56:17.929Z,23.16
2022-09-10T13:59:30.819Z,23.17
2022-09-10T14:02:41.502Z,23.22
2022-09-10T14:05:52.065Z,23.12
2022-09-10T14:08:59.782Z,23.21
2022-09-10T14:12:07.935Z,23.23
2022-09-10T14:15:17.785Z,23.17
2022-09-10T14:18:21.679Z,23.33
2022-09-10T14:21:27.590Z,23.47
2022-09-10T14:24:35.002Z,23.44
2022-09-10T14:27:39.199Z,23.29
2022-09-10T14:30:43.844Z,23.19
2022-09-10T14:33:46.632Z,23.04
2022-09-10T14:36:49.495Z,22.94
2022-09-10T14:39:52.415Z,22.81
2022-09-10T14:43:25.775Z,22.68
2022-09-10T14:46:57.369Z,22.51
2022-09-10T14:50:25.277Z,22.39
2022-09-10T14:53:27.985Z,22.33
2022-09-10T14:56:38.060Z,22.32
2022-09-10T14:59:44.108Z,22.19
2022-09-10T15:02:48.471Z,22.11
2022-09-10T15:05:51.466Z,22.06
2022-09-10T15:08:56.277Z,22.03
2022-09-10T15:12:12.103Z,21.95
2022-09-10T15:15:17.582Z,21.98
2022-09-10T15:18:22.691Z,22.00
2022-09-10T15:21:25.774Z,22.01
2022-09-10T15:24:28.724Z,21.98
2022-09-10T15:27:31.631Z,21.99
2022-09-10T15:30:35.934Z,21.99
2022-09-10T15:33:40.147Z,21.95
2022-09-10T15:36:42.852Z,21.94
2022-09-10T15:39:47.057Z,21.85
2022-09-10T15:42:49.891Z,21.79
2022-09-10T15:45:52.888Z,21.72
2022-09-10T15:48:59.466Z,21.64
2022-09-10T15:52:03.404Z,21.55
2022-09-10T15:55:07.118Z,21.39
2022-09-10T15:58:10.099Z,21.33
2022-09-10T16:01:12.912Z,21.24
2022-09-10T16:04:15.834Z,21.15
2022-09-10T16:07:18.561Z,21.08
2022-09-10T16:10:21.414Z,21.03
2022-09-10T16:13:26.053Z,20.97
2022-09-10T16:16:29.644Z,20.96
2022-09-10T16:19:32.412Z,20.90
2022-09-10T16:22:35.364Z,20.87
2022-09-10T16:25:39.346Z,20.74
2022-09-10T16:28:56.385Z,20.80
2022-09-10T16:31:59.806Z,20.74
2022-09-10T16:35:04.217Z,20.69
2022-09-10T16:38:07.054Z,20.66
2022-09-10T16:41:14.718Z,20.58
2022-09-10T16:44:18.605Z,20.50
2022-09-10T16:47:21.501Z,20.39
2022-09-10T16:50:24.092Z,20.30
2022-09-10T16:53:27.003Z,20.24
2022-09-10T16:56:33.960Z,20.18
2022-09-10T16:59:36.930Z,20.12
2022-09-10T17:02:40.976Z,20.04
2022-09-10T17:05:46.740Z,19.98
2022-09-10T17:08:50.197Z,19.94
2022-09-10T17:11:53.608Z,19.84
2022-09-10T17:14:56.215Z,19.75
2022-09-10T17:17:59.117Z,19.65
2022-09-10T17:21:01.703Z,19.61
2022-09-10T17:24:07.325Z,19.52
2022-09-10T17:27:11.495Z,19.55
2022-09-10T17:30:14.339Z,19.52
2022-09-10T17:33:16.987Z,19.49
2022-09-10T17:36:19.848Z,19.47
2022-09-10T17:39:22.810Z,19.35
2022-09-10T17:42:25.660Z,19.36
2022-09-10T17:45:28.972Z,19.29
2022-09-10T17:48:32.846Z,19.21
2022-09-10T17:51:35.577Z,19.15
2022-09-10T17:54:38.437Z,19.08
2022-09-10T17:57:41.051Z,18.98
2022-09-10T18:00:49.516Z,18.99
2022-09-10T18:03:53.426Z,18.92
2022-09-10T18:06:56.090Z,18.83
2022-09-10T18:09:59.250Z,18.80
2022-09-10T18:13:02.379Z,18.78
2022-09-10T18:16:07.519Z,18.71
2022-09-10T18:19:14.523Z,18.71
2022-09-10T18:22:17.505Z,18.65
2022-09-10T18:25:20.061Z,18.55
2022-09-10T18:28:22.949Z,18.42
2022-09-10T18:31:40.868Z,18.25
2022-09-10T18:34:43.813Z,18.07
2022-09-10T18:37:51.800Z,17.88
2022-09-10T18:40:56.307Z,17.72
2022-09-10T18:44:01.251Z,17.53
2022-09-10T18:47:17.662Z,17.36
2022-09-10T18:50:26.567Z,17.22
2022-09-10T18:53:29.558Z,17.03
2022-09-10T18:56:32.357Z,16.87
2022-09-10T18:59:35.398Z,16.73
2022-09-10T19:02:38.082Z,16.55
2022-09-10T19:05:41.045Z,16.36
2022-09-10T19:08:55.390Z,16.27
2022-09-10T19:12:00.481Z,16.10
2022-09-10T19:15:03.111Z,15.97
2022-09-10T19:18:06.657Z,15.91
2022-09-10T19:21:10.137Z,15.81
2022-09-10T19:24:14.712Z,15.75
2022-09-10T19:27:17.296Z,15.69
2022-09-10T19:30:20.206Z,15.63
2022-09-10T19:33:22.712Z,15.64
2022-09-10T19:36:31.698Z,15.62
2022-09-10T19:39:34.374Z,15.62
2022-09-10T19:42:37.266Z,15.57
2022-09-10T19:45:39.846Z,15.66
2022-09-10T19:48:43.449Z,15.69
2022-09-10T19:51:46.536Z,15.74
2022-09-10T19:54:49.735Z,15.83
2022-09-10T19:57:53.160Z,15.90
2022-09-10T20:00:56.022Z,16.06
2022-09-10T20:04:01.745Z,16.12
2022-09-10T20:07:04.390Z,16.19
2022-09-10T20:10:07.691Z,16.26
2022-09-10T20:13:12.037Z,16.29
2022-09-10T20:16:16.945Z,16.33
2022-09-10T20:19:21.895Z,16.35
2022-09-10T20:22:24.734Z,16.42
2022-09-10T20:25:28.658Z,16.54
2022-09-10T20:28:31.479Z,16.58
2022-09-10T20:31:36.666Z,16.71
2022-09-10T20:34:39.518Z,16.80
2022-09-10T20:37:42.237Z,16.87
2022-09-10T20:40:45.054Z,16.89
2022-09-10T20:43:51.988Z,16.92
2022-09-10T20:46:54.783Z,16.89
2022-09-10T20:49:58.280Z,16.89
2022-09-10T20:53:01.787Z,16.84
2022-09-10T20:56:07.051Z,16.80
2022-09-10T20:59:12.249Z,16.76
2022-09-10T21:02:14.959Z,16.67
2022-09-10T21:05:19.128Z,16.54
2022-09-10T21:08:21.810Z,16.49
2022-09-10T21:11:27.062Z,16.40
2022-09-10T21:14:29.605Z,16.34
2022-09-10T21:17:32.398Z,16.22
2022-09-10T21:20:35.659Z,16.14
2022-09-10T21:23:46.785Z,16.03
2022-09-10T21:26:50.244Z,15.90
2022-09-10T21:29:53.070Z,15.81
2022-09-10T21:32:55.638Z,15.78
2022-09-10T21:36:06.342Z,15.71
2022-09-10T21:39:15.709Z,15.76
2022-09-10T21:42:18.707Z,15.76
2022-09-10T21:45:25.641Z,15.93
2022-09-10T21:48:35.904Z,15.95
2022-09-10T21:51:38.737Z,16.00
2022-09-10T21:54:41.703Z,15.96
2022-09-10T21:57:44.342Z,15.96
2022-09-10T22:00:47.178Z,16.03
2022-09-10T22:03:52.658Z,16.00
2022-09-10T22:06:55.771Z,16.04
2022-09-10T22:09:59.256Z,15.99
2022-09-10T22:13:01.774Z,15.92
2022-09-10T22:16:09.448Z,15.93
2022-09-10T22:19:14.841Z,15.89
2022-09-10T22:22:17.667Z,15.84
2022-09-10T22:25:20.218Z,15.76
2022-09-10T22:28:23.166Z,15.65
2022-09-10T22:31:28.629Z,15.56
2022-09-10T22:34:31.586Z,15.44
2022-09-10T22:37:35.622Z,15.30
2022-09-10T22:40:39.083Z,15.13
2022-09-10T22:43:42.796Z,15.07
2022-09-10T22:46:46.168Z,14.84
2022-09-10T22:49:48.765Z,14.76
2022-09-10T22:52:51.690Z,14.58
2022-09-10T22:55:54.265Z,14.34
2022-09-10T22:58:58.737Z,14.32
2022-09-10T23:02:01.924Z,14.18
2022-09-10T23:05:06.622Z,14.07
2022-09-10T23:08:09.155Z,13.94
2022-09-10T23:11:35.759Z,13.83
2022-09-10T23:14:39.092Z,13.64
2022-09-10T23:17:42.234Z,13.54
2022-09-10T23:20:44.927Z,13.39
2022-09-10T23:23:50.010Z,13.35
2022-09-10T23:26:53.874Z,13.25
2022-09-10T23:29:56.897Z,13.10
2022-09-10T23:32:59.425Z,12.96
2022-09-10T23:36:04.114Z,12.84
2022-09-10T23:39:11.225Z,12.79
2022-09-10T23:42:14.265Z,12.69
2022-09-10T23:45:17.103Z,12.57
2022-09-10T23:48:19.991Z,12.56
2022-09-10T23:51:23.076Z,12.51
2022-09-10T23:54:26.078Z,12.41
2022-09-10T23:57:28.726Z,12.36
